createdAt,value
2018-03-17T00:01:56.568Z,94022.62
2018-03-17T00:04:47.307Z,94024.91
2018-03-17T00:07:16.347Z,94020.87
2018-03-17T00:09:46.295Z,94020.09
2018-03-17T00:12:15.338Z,94020.50
2018-03-17T00:14:45.274Z,94016.76
2018-03-17T00:17:14.666Z,94013.62
2018-03-17T00:19:46.830Z,94011.66
2018-03-17T00:22:15.893Z,94005.24
2018-03-17T00:24:46.918Z,93997.31
2018-03-17T00:27:29.447Z,93993.22
2018-03-17T00:29:58.462Z,93993.25
2018-03-17T00:32:27.758Z,93993.99
2018-03-17T00:34:56.791Z,93990.13
2018-03-17T00:37:25.882Z,93990.77
2018-03-17T00:39:54.934Z,93991.33
2018-03-17T00:42:34.571Z,93993.34
2018-03-17T00:45:03.620Z,93999.36
2018-03-17T00:47:32.658Z,93998.66
2018-03-17T00:50:01.747Z,93999.75
2018-03-17T00:52:32.935Z,94001.14
2018-03-17T00:55:01.992Z,93994.03
2018-03-17T00:57:38.854Z,93991.97
2018-03-17T01:00:08.078Z,93991.28
2018-03-17T01:02:37.107Z,93978.66
2018-03-17T01:05:06.158Z,93974.91
2018-03-17T01:07:35.245Z,93963.02
2018-03-17T01:10:04.510Z,93963.42
2018-03-17T01:12:33.551Z,93964.89
2018-03-17T01:17:38.311Z,93955.97
2018-03-17T01:20:08.276Z,93953.84
2018-03-17T01:22:49.495Z,93955.88
2018-03-17T01:25:18.542Z,93957.63
2018-03-17T01:29:52.916Z,93941.72
2018-03-17T01:32:22.062Z,93947.69
2018-03-17T01:34:55.259Z,93944.55
2018-03-17T01:37:24.603Z,93939.55
2018-03-17T01:39:54.539Z,93943.41
2018-03-17T01:42:23.600Z,93940.28
2018-03-17T01:44:54.563Z,93931.30
2018-03-17T01:47:23.610Z,93925.08
2018-03-17T01:49:54.558Z,93920.87
2018-03-17T01:52:23.598Z,93917.27
2018-03-17T01:54:52.635Z,93910.91
2018-03-17T01:57:21.688Z,93901.69
2018-03-17T01:59:59.239Z,93898.93
2018-03-17T02:02:41.118Z,93894.34
2018-03-17T02:05:10.166Z,93893.64
2018-03-17T02:07:47.187Z,93892.98
2018-03-17T02:10:16.270Z,93892.14
2018-03-17T02:12:53.072Z,93884.30
2018-03-17T02:15:22.164Z,93883.48
2018-03-17T02:20:41.325Z,93878.31
2018-03-17T02:23:10.432Z,93877.48
2018-03-17T02:28:24.145Z,93870.98
2018-03-17T02:31:07.179Z,93872.84
2018-03-17T02:36:15.391Z,93869.96
2018-03-17T02:38:45.435Z,93867.45
2018-03-17T02:41:14.643Z,93869.08
2018-03-17T02:46:19.317Z,93869.47
2018-03-17T02:48:48.691Z,93861.67
2018-03-17T02:51:17.718Z,93861.98
2018-03-17T02:53:46.751Z,93861.73
2018-03-17T02:56:15.955Z,93863.76
2018-03-17T03:01:23.186Z,93857.64
2018-03-17T03:03:53.157Z,93863.36
2018-03-17T03:06:22.289Z,93859.23
2018-03-17T03:08:53.254Z,93864.25
2018-03-17T03:11:22.294Z,93857.61
2018-03-17T03:14:01.230Z,93859.09
2018-03-17T03:19:09.540Z,93846.48
2018-03-17T03:21:40.526Z,93843.06
2018-03-17T03:24:09.562Z,93839.55
2018-03-17T03:26:38.612Z,93839.11
2018-03-17T03:29:08.590Z,93832.70
2018-03-17T03:31:37.635Z,93831.50
2018-03-17T03:34:07.610Z,93828.11
2018-03-17T03:36:44.715Z,93824.58
2018-03-17T03:39:13.858Z,93824.89
2018-03-17T03:41:44.876Z,93822.36
2018-03-17T03:44:13.940Z,93827.29
2018-03-17T03:46:54.815Z,93824.15
2018-03-17T03:49:23.839Z,93822.55
2018-03-17T03:51:56.752Z,93820.91
2018-03-17T03:54:25.812Z,93816.52
2018-03-17T03:56:57.461Z,93809.83
2018-03-17T03:59:26.500Z,93802.94
2018-03-17T04:01:59.551Z,93800.36
2018-03-17T04:07:06.864Z,93790.68
2018-03-17T04:09:36.120Z,93789.41
2018-03-17T04:12:05.160Z,93789.45
2018-03-17T04:14:34.204Z,93790.72
2018-03-17T04:17:10.627Z,93786.86
2018-03-17T04:19:39.751Z,93791.08
2018-03-17T04:24:45.550Z,93786.12
2018-03-17T04:27:16.548Z,93789.80
2018-03-17T04:29:45.603Z,93791.16
2018-03-17T04:32:29.117Z,93792.50
2018-03-17T04:34:59.074Z,93794.39
2018-03-17T04:40:05.295Z,93788.44
2018-03-17T04:42:34.348Z,93785.07
2018-03-17T04:45:03.390Z,93785.45
2018-03-17T04:47:32.435Z,93788.02
2018-03-17T04:50:01.484Z,93784.44
2018-03-17T04:52:30.528Z,93785.80
2018-03-17T04:54:59.692Z,93777.60
2018-03-17T04:57:29.644Z,93776.29
2018-03-17T05:02:34.637Z,93764.86
2018-03-17T05:05:04.599Z,93764.03
2018-03-17T05:07:33.725Z,93762.66
2018-03-17T05:10:06.688Z,93762.25
2018-03-17T05:12:35.731Z,93755.16
2018-03-17T05:15:05.183Z,93759.59
2018-03-17T05:17:34.218Z,93755.83
2018-03-17T05:22:39.095Z,93752.66
2018-03-17T05:25:08.147Z,93762.39
2018-03-17T05:27:38.268Z,93749.77
2018-03-17T05:30:07.485Z,93751.13
2018-03-17T05:32:36.672Z,93745.14
2018-03-17T05:37:47.360Z,93739.16
2018-03-17T05:40:22.336Z,93741.90
2018-03-17T05:42:52.177Z,93742.19
2018-03-17T05:45:21.385Z,93739.14
2018-03-17T05:50:32.602Z,93739.62
2018-03-17T05:53:05.554Z,93736.59
2018-03-17T05:55:34.620Z,93733.52
2018-03-17T05:58:04.067Z,93727.66
2018-03-17T06:00:33.123Z,93726.14
2018-03-17T06:03:02.176Z,93721.55
2018-03-17T06:05:31.462Z,93720.88
2018-03-17T06:10:37.956Z,93718.25
2018-03-17T06:21:02.591Z,93705.47
2018-03-17T06:23:31.684Z,93702.91
2018-03-17T06:26:00.950Z,93703.50
2018-03-17T06:28:30.001Z,93697.59
2018-03-17T06:31:08.415Z,93699.93
2018-03-17T06:33:37.584Z,93700.36
2018-03-17T06:36:06.624Z,93694.52
2018-03-17T06:38:36.402Z,93683.59
2018-03-17T06:43:42.658Z,93674.82
2018-03-17T06:46:19.494Z,93684.02
2018-03-17T06:48:49.069Z,93687.08
2018-03-17T06:51:18.110Z,93687.39
2018-03-17T06:53:47.394Z,93684.66
2018-03-17T06:58:52.560Z,93676.83
2018-03-17T07:01:22.579Z,93676.63
2018-03-17T07:03:51.623Z,93676.55
2018-03-17T07:08:56.585Z,93666.38
2018-03-17T07:11:33.818Z,93666.50
2018-03-17T07:14:03.308Z,93664.01
2018-03-17T07:16:32.371Z,93658.48
2018-03-17T07:24:12.227Z,93662.55
2018-03-17T07:26:43.906Z,93659.21
2018-03-17T07:29:13.000Z,93663.59
2018-03-17T07:31:42.063Z,93662.55
2018-03-17T07:34:11.389Z,93666.94
2018-03-17T07:36:40.468Z,93659.95
2018-03-17T07:39:10.135Z,93663.49
2018-03-17T07:41:39.192Z,93662.33
2018-03-17T07:44:08.239Z,93660.56
2018-03-17T07:46:37.644Z,93658.94
2018-03-17T07:49:06.699Z,93658.66
2018-03-17T07:51:36.228Z,93660.98
2018-03-17T07:54:05.267Z,93653.23
2018-03-17T07:56:34.328Z,93654.27
2018-03-17T07:59:03.404Z,93653.94
2018-03-17T08:01:32.428Z,93649.36
2018-03-17T08:09:19.032Z,93633.70
2018-03-17T08:11:51.763Z,93635.05
2018-03-17T08:14:22.293Z,93637.23
2018-03-17T08:16:51.330Z,93633.13
2018-03-17T08:19:20.388Z,93626.12
2018-03-17T08:24:25.067Z,93628.47
2018-03-17T08:26:54.113Z,93623.67
2018-03-17T08:29:23.166Z,93625.81
2018-03-17T08:31:52.220Z,93624.36
2018-03-17T08:34:21.254Z,93626.00
2018-03-17T08:36:50.586Z,93621.08
2018-03-17T08:39:19.682Z,93620.38
2018-03-17T08:41:49.661Z,93614.52
2018-03-17T08:44:18.738Z,93610.98
2018-03-17T08:46:47.999Z,93606.09
2018-03-17T08:49:17.134Z,93613.36
2018-03-17T08:51:46.168Z,93609.75
2018-03-17T08:54:16.038Z,93606.89
2018-03-17T08:56:46.067Z,93600.46
2018-03-17T08:59:17.252Z,93603.99
2018-03-17T09:01:50.011Z,93606.22
2018-03-17T09:04:20.252Z,93603.17
2018-03-17T09:06:50.191Z,93597.10
2018-03-17T09:09:19.242Z,93606.30
2018-03-17T09:11:50.334Z,93602.44
2018-03-17T09:14:19.383Z,93601.67
2018-03-17T09:16:52.800Z,93601.53
2018-03-17T09:19:22.755Z,93600.69
2018-03-17T09:24:28.580Z,93592.16
2018-03-17T09:29:36.957Z,93594.20
2018-03-17T09:32:06.878Z,93595.41
2018-03-17T09:34:35.926Z,93595.86
2018-03-17T09:37:05.205Z,93590.50
2018-03-17T09:39:34.243Z,93589.34
2018-03-17T09:44:38.478Z,93585.68
2018-03-17T09:47:08.538Z,93580.16
2018-03-17T09:49:37.584Z,93579.63
2018-03-17T09:52:06.668Z,93572.19
2018-03-17T09:54:38.849Z,93571.59
2018-03-17T09:57:07.920Z,93568.01
2018-03-17T10:02:12.343Z,93561.41
2018-03-17T10:07:16.670Z,93560.55
2018-03-17T10:09:45.785Z,93559.46
2018-03-17T10:12:16.296Z,93560.50
2018-03-17T10:14:45.974Z,93555.91
2018-03-17T10:17:15.175Z,93552.27
2018-03-17T10:19:46.214Z,93554.78
2018-03-17T10:22:15.264Z,93549.02
2018-03-17T10:24:44.540Z,93544.19
2018-03-17T10:27:13.772Z,93542.65
2018-03-17T10:29:43.118Z,93539.00
2018-03-17T10:32:12.227Z,93536.52
2018-03-17T10:34:41.301Z,93533.56
2018-03-17T10:37:10.349Z,93527.80
2018-03-17T10:39:39.390Z,93521.98
2018-03-17T10:42:08.795Z,93513.77
2018-03-17T10:44:37.861Z,93513.47
2018-03-17T10:49:45.919Z,93510.55
2018-03-17T10:52:14.955Z,93508.79
2018-03-17T10:54:44.004Z,93505.25
2018-03-17T10:57:16.835Z,93504.05
2018-03-17T10:59:47.210Z,93500.79
2018-03-17T11:02:17.257Z,93494.61
2018-03-17T11:04:46.240Z,93495.58
2018-03-17T11:07:16.703Z,93497.13
2018-03-17T11:09:45.783Z,93500.16
2018-03-17T11:12:14.852Z,93492.86
2018-03-17T11:14:44.199Z,93489.13
2018-03-17T11:17:13.287Z,93496.08
2018-03-17T11:19:42.335Z,93485.30
2018-03-17T11:22:12.320Z,93488.02
2018-03-17T11:24:41.542Z,93488.48
2018-03-17T11:27:10.575Z,93488.93
2018-03-17T11:29:40.006Z,93481.72
2018-03-17T11:32:09.434Z,93479.44
2018-03-17T11:34:38.487Z,93479.15
2018-03-17T11:37:08.571Z,93480.16
2018-03-17T11:39:37.788Z,93475.84
2018-03-17T11:42:06.844Z,93470.19
2018-03-17T11:44:36.779Z,93467.44
2018-03-17T11:47:07.975Z,93466.47
2018-03-17T11:49:37.064Z,93469.55
2018-03-17T11:52:06.105Z,93468.10
2018-03-17T11:54:36.764Z,93465.92
2018-03-17T11:57:05.852Z,93461.28
2018-03-17T11:59:34.914Z,93453.72
2018-03-17T12:02:05.339Z,93457.41
2018-03-17T12:04:44.150Z,93456.48
2018-03-17T12:09:58.339Z,93453.14
2018-03-17T12:12:30.203Z,93449.72
2018-03-17T12:15:00.703Z,93449.45
2018-03-17T12:17:38.835Z,93450.02
2018-03-17T12:20:08.294Z,93447.88
2018-03-17T12:22:39.306Z,93444.70
2018-03-17T12:25:10.322Z,93441.84
2018-03-17T12:27:47.744Z,93439.05
2018-03-17T12:30:20.944Z,93438.52
2018-03-17T12:32:50.028Z,93427.67
2018-03-17T12:35:22.177Z,93426.43
2018-03-17T12:37:51.736Z,93424.89
2018-03-17T12:42:56.062Z,93425.88
2018-03-17T12:45:33.638Z,93425.81
2018-03-17T12:48:02.912Z,93424.82
2018-03-17T12:50:44.006Z,93424.73
2018-03-17T12:53:21.174Z,93425.14
2018-03-17T12:55:58.668Z,93427.73
2018-03-17T12:58:36.882Z,93428.17
2018-03-17T13:01:16.164Z,93426.91
2018-03-17T13:03:54.226Z,93420.46
2018-03-17T13:06:32.651Z,93426.80
2018-03-17T13:09:10.587Z,93421.05
2018-03-17T13:11:47.508Z,93425.95
2018-03-17T13:14:23.913Z,93426.81
2018-03-17T13:17:01.608Z,93426.73
2018-03-17T13:22:17.300Z,93417.87
2018-03-17T13:24:57.099Z,93422.34
2018-03-17T13:27:49.302Z,93421.44
2018-03-17T13:30:26.744Z,93421.97
2018-03-17T13:33:08.115Z,93424.14
2018-03-17T13:36:00.248Z,93414.09
2018-03-17T13:38:37.790Z,93414.31
2018-03-17T13:43:52.371Z,93410.08
2018-03-17T13:46:31.379Z,93414.03
2018-03-17T13:49:07.882Z,93413.70
2018-03-17T13:51:49.739Z,93411.63
2018-03-17T13:54:29.667Z,93405.89
2018-03-17T13:57:09.882Z,93410.56
2018-03-17T13:59:47.976Z,93409.18
2018-03-17T14:02:27.637Z,93411.78
2018-03-17T14:07:46.297Z,93402.60
2018-03-17T14:10:24.039Z,93401.00
2018-03-17T14:13:00.390Z,93410.84
2018-03-17T14:15:35.644Z,93409.19
2018-03-17T14:18:04.710Z,93408.26
2018-03-17T14:20:36.089Z,93404.83
2018-03-17T14:23:05.211Z,93407.64
2018-03-17T14:25:36.159Z,93411.75
2018-03-17T14:28:05.204Z,93409.27
2018-03-17T14:30:34.251Z,93406.52
2018-03-17T14:33:04.387Z,93402.91
2018-03-17T14:35:39.298Z,93399.73
2018-03-17T14:38:08.518Z,93402.09
2018-03-17T14:40:37.618Z,93401.09
2018-03-17T14:43:06.686Z,93399.60
2018-03-17T14:45:43.700Z,93396.99
2018-03-17T14:48:12.751Z,93399.30
2018-03-17T14:53:21.242Z,93396.33
2018-03-17T14:55:57.295Z,93396.04
2018-03-17T14:58:30.019Z,93394.03
2018-03-17T15:01:06.909Z,93395.25
2018-03-17T15:03:43.102Z,93397.30
2018-03-17T15:06:15.242Z,93398.20
2018-03-17T15:08:47.100Z,93400.26
2018-03-17T15:11:18.449Z,93401.63
2018-03-17T15:13:52.929Z,93399.45
2018-03-17T15:16:24.457Z,93405.03
2018-03-17T15:24:14.321Z,93403.08
2018-03-17T15:26:46.498Z,93399.70
2018-03-17T15:29:15.621Z,93403.75
2018-03-17T15:31:44.695Z,93403.48
2018-03-17T15:36:53.469Z,93408.78
2018-03-17T15:42:03.790Z,93413.47
2018-03-17T15:44:36.786Z,93408.31
2018-03-17T15:47:09.433Z,93414.50
2018-03-17T15:49:39.127Z,93417.59
2018-03-17T15:52:08.172Z,93413.99
2018-03-17T15:54:38.439Z,93409.42
2018-03-17T15:59:48.105Z,93411.30
2018-03-17T16:02:21.342Z,93415.58
2018-03-17T16:04:56.251Z,93422.64
2018-03-17T16:07:25.552Z,93417.93
2018-03-17T16:09:55.835Z,93423.73
2018-03-17T16:12:24.939Z,93423.05
2018-03-17T16:14:55.773Z,93419.78
2018-03-17T16:17:29.749Z,93421.84
2018-03-17T16:20:06.366Z,93423.88
2018-03-17T16:22:36.461Z,93426.78
2018-03-17T16:25:13.318Z,93427.39
2018-03-17T16:27:45.512Z,93435.74
2018-03-17T16:30:14.567Z,93430.34
2018-03-17T16:35:21.010Z,93432.83
2018-03-17T16:37:50.975Z,93444.20
2018-03-17T16:40:23.914Z,93445.05
2018-03-17T16:42:53.175Z,93449.24
2018-03-17T16:45:25.474Z,93452.24
2018-03-17T16:48:10.071Z,93448.27
2018-03-17T16:50:40.080Z,93448.64
2018-03-17T16:53:09.153Z,93443.07
2018-03-17T16:55:38.439Z,93446.20
2018-03-17T16:58:12.240Z,93445.90
2018-03-17T17:00:41.632Z,93446.98
2018-03-17T17:05:49.239Z,93448.69
2018-03-17T17:10:56.063Z,93456.13
2018-03-17T17:13:29.699Z,93462.11
2018-03-17T17:15:59.887Z,93465.00
2018-03-17T17:18:31.199Z,93463.39
2018-03-17T17:21:01.272Z,93471.77
2018-03-17T17:26:05.511Z,93466.08
2018-03-17T17:28:36.391Z,93470.53
2018-03-17T17:31:06.735Z,93472.06
2018-03-17T17:33:35.811Z,93474.06
2018-03-17T17:36:09.137Z,93476.87
2018-03-17T17:38:38.208Z,93477.28
2018-03-17T17:41:07.391Z,93479.76
2018-03-17T17:43:36.828Z,93488.41
2018-03-17T17:46:06.040Z,93487.36
2018-03-17T17:48:35.180Z,93485.77
2018-03-17T17:51:04.371Z,93487.95
2018-03-17T17:53:52.139Z,93490.16
2018-03-17T17:56:29.109Z,93490.53
2018-03-17T17:58:58.267Z,93495.25
2018-03-17T18:04:06.354Z,93500.17
2018-03-17T18:06:35.997Z,93500.75
2018-03-17T18:09:09.095Z,93499.45
2018-03-17T18:11:38.163Z,93505.85
2018-03-17T18:14:08.776Z,93505.59
2018-03-17T18:16:37.856Z,93503.03
2018-03-17T18:19:14.029Z,93506.15
2018-03-17T18:21:48.376Z,93504.89
2018-03-17T18:24:17.410Z,93503.46
2018-03-17T18:26:56.667Z,93500.58
2018-03-17T18:29:25.778Z,93505.17
2018-03-17T18:34:31.896Z,93501.69
2018-03-17T18:37:10.026Z,93504.95
2018-03-17T18:39:41.940Z,93509.39
2018-03-17T18:42:19.407Z,93512.92
2018-03-17T18:44:48.542Z,93508.70
2018-03-17T18:47:19.836Z,93517.04
2018-03-17T18:49:54.586Z,93519.94
2018-03-17T18:52:26.796Z,93523.53
2018-03-17T18:54:55.843Z,93525.99
2018-03-17T18:57:25.696Z,93520.16
2018-03-17T18:59:58.015Z,93529.80
2018-03-17T19:05:06.934Z,93528.14
2018-03-17T19:07:39.878Z,93527.75
2018-03-17T19:10:11.330Z,93524.41
2018-03-17T19:12:41.593Z,93527.81
2018-03-17T19:15:11.477Z,93530.02
2018-03-17T19:17:41.495Z,93530.10
2018-03-17T19:20:10.794Z,93534.55
2018-03-17T19:22:39.871Z,93537.23
2018-03-17T19:25:08.981Z,93534.80
2018-03-17T19:27:38.049Z,93533.27
2018-03-17T19:30:08.088Z,93528.67
2018-03-17T19:32:41.373Z,93527.78
2018-03-17T19:35:13.956Z,93535.05
2018-03-17T19:37:43.075Z,93534.19
2018-03-17T19:40:12.235Z,93532.50
2018-03-17T19:42:45.115Z,93536.47
2018-03-17T19:45:14.760Z,93531.80
2018-03-17T19:47:45.878Z,93535.11
2018-03-17T19:50:15.341Z,93536.33
2018-03-17T19:52:45.164Z,93529.84
2018-03-17T19:57:55.042Z,93525.47
2018-03-17T20:00:26.623Z,93530.61
2018-03-17T20:03:00.597Z,93527.95
2018-03-17T20:05:31.237Z,93528.61
2018-03-17T20:08:04.279Z,93526.67
2018-03-17T20:10:34.067Z,93526.84
2018-03-17T20:13:08.301Z,93523.75
2018-03-17T20:15:37.736Z,93522.53
2018-03-17T20:18:07.751Z,93525.80
2018-03-17T20:20:38.264Z,93524.89
2018-03-17T20:23:09.391Z,93524.00
2018-03-17T20:25:39.677Z,93527.56
2018-03-17T20:28:11.309Z,93526.85
2018-03-17T20:30:40.616Z,93524.52
2018-03-17T20:33:09.910Z,93526.42
2018-03-17T20:35:42.642Z,93528.80
2018-03-17T20:38:12.636Z,93537.21
2018-03-17T20:40:43.835Z,93535.84
2018-03-17T20:43:15.428Z,93536.20
2018-03-17T20:45:49.613Z,93541.88
2018-03-17T20:48:23.351Z,93541.27
2018-03-17T20:50:57.086Z,93539.67
2018-03-17T20:58:39.784Z,93540.95
2018-03-17T21:03:45.356Z,93539.72
2018-03-17T21:08:51.265Z,93540.59
2018-03-17T21:11:21.283Z,93543.59
2018-03-17T21:13:54.661Z,93543.52
2018-03-17T21:16:26.474Z,93549.30
2018-03-17T21:19:01.508Z,93545.98
2018-03-17T21:24:08.680Z,93546.98
2018-03-17T21:26:38.127Z,93545.42
2018-03-17T21:31:43.872Z,93545.03
2018-03-17T21:36:48.332Z,93545.49
2018-03-17T21:39:21.583Z,93546.23
2018-03-17T21:41:53.103Z,93545.63
2018-03-17T21:44:26.987Z,93547.57
2018-03-17T21:47:00.351Z,93546.31
2018-03-17T21:49:31.674Z,93548.27
2018-03-17T21:52:00.720Z,93545.08
2018-03-17T21:57:16.939Z,93557.92
2018-03-17T22:02:35.818Z,93553.78
2018-03-17T22:05:06.489Z,93558.13
2018-03-17T22:07:35.601Z,93555.72
2018-03-17T22:10:05.725Z,93558.42
2018-03-17T22:12:34.788Z,93562.26
2018-03-17T22:15:04.228Z,93565.25
2018-03-17T22:20:11.474Z,93567.23
2018-03-17T22:22:40.603Z,93572.47
2018-03-17T22:25:11.682Z,93573.55
2018-03-17T22:27:40.721Z,93572.91
2018-03-17T22:30:13.478Z,93575.48
2018-03-17T22:32:42.537Z,93570.27
2018-03-17T22:35:11.912Z,93569.13
2018-03-17T22:37:40.994Z,93578.63
2018-03-17T22:40:10.077Z,93569.28
2018-03-17T22:42:39.444Z,93570.61
2018-03-17T22:45:09.054Z,93570.77
2018-03-17T22:47:38.893Z,93576.33
2018-03-17T22:50:08.439Z,93572.53
2018-03-17T22:52:38.756Z,93561.91
2018-03-17T22:55:17.091Z,93560.36
2018-03-17T22:57:46.189Z,93562.69
2018-03-17T23:00:16.192Z,93568.20
2018-03-17T23:02:45.445Z,93570.81
2018-03-17T23:07:50.325Z,93577.77
2018-03-17T23:10:20.477Z,93580.34
2018-03-17T23:12:49.554Z,93570.00
2018-03-17T23:15:36.938Z,93567.55
2018-03-17T23:18:06.331Z,93572.91
2018-03-17T23:20:36.299Z,93569.89
2018-03-17T23:23:05.362Z,93573.77
2018-03-17T23:25:34.428Z,93577.97
2018-03-17T23:28:04.379Z,93575.25
2018-03-17T23:30:33.448Z,93573.41
2018-03-17T23:33:07.486Z,93572.12
2018-03-17T23:35:36.568Z,93574.95
2018-03-17T23:40:43.844Z,93580.22
2018-03-17T23:43:18.585Z,93584.80
2018-03-17T23:45:47.754Z,93580.00
2018-03-17T23:48:16.830Z,93586.13
2018-03-17T23:50:45.895Z,93580.30
2018-03-17T23:55:57.471Z,93591.23
